sensor_id;sensor_type;location;lat;lon;timestamp;pressure;altitude;pressure_sealevel;temperature;humidity
28606;BME280;46498;49.968;7.754;2023-03-20T00:03:43;97248.00;;;8.13;100.00
28606;BME280;46498;49.968;7.754;2023-03-20T00:08:45;97245.00;;;8.15;100.00
28606;BME280;46498;49.968;7.754;2023-03-20T00:13:46;97258.00;;;8.30;100.00
28606;BME280;46498;49.968;7.754;2023-03-20T00:18:47;97253.00;;;8.20;100.00
28606;BME280;46498;49.968;7.754;2023-03-20T00:23:48;97254.00;;;8.26;100.00
28606;BME280;46498;49.968;7.754;2023-03-20T00:28:49;97262.00;;;8.24;100.00
28606;BME280;46498;49.968;7.754;2023-03-20T00:33:52;97258.00;;;8.34;100.00
28606;BME280;46498;49.968;7.754;2023-03-20T00:38:54;97255.00;;;8.34;100.00
28606;BME280;46498;49.968;7.754;2023-03-20T00:43:59;97265.00;;;8.35;100.00
28606;BME280;46498;49.968;7.754;2023-03-20T00:49:02;97262.00;;;8.41;100.00
28606;BME280;46498;49.968;7.754;2023-03-20T00:54:13;97273.00;;;8.24;100.00
28606;BME280;46498;49.968;7.754;2023-03-20T00:59:17;97267.00;;;8.13;100.00
28606;BME280;46498;49.968;7.754;2023-03-20T01:04:20;97273.00;;;8.22;100.00
28606;BME280;46498;49.968;7.754;2023-03-20T01:09:21;97271.00;;;8.09;100.00
28606;BME280;46498;49.968;7.754;2023-03-20T01:14:22;97270.00;;;8.05;100.00
28606;BME280;46498;49.968;7.754;2023-03-20T01:19:23;97281.00;;;8.03;100.00
28606;BME280;46498;49.968;7.754;2023-03-20T01:24:24;97282.00;;;7.81;100.00
28606;BME280;46498;49.968;7.754;2023-03-20T01:29:25;97282.00;;;7.92;100.00
28606;BME280;46498;49.968;7.754;2023-03-20T01:34:32;97297.00;;;7.92;100.00
28606;BME280;46498;49.968;7.754;2023-03-20T01:39:34;97302.00;;;8.03;100.00
28606;BME280;46498;49.968;7.754;2023-03-20T01:44:36;97307.00;;;7.97;100.00
28606;BME280;46498;49.968;7.754;2023-03-20T01:51:11;97296.00;;;8.11;100.00
28606;BME280;46498;49.968;7.754;2023-03-20T01:56:14;97301.00;;;8.14;100.00
28606;BME280;46498;49.968;7.754;2023-03-20T02:01:19;97297.00;;;8.07;100.00
28606;BME280;46498;49.968;7.754;2023-03-20T02:06:21;97305.00;;;8.03;100.00
28606;BME280;46498;49.968;7.754;2023-03-20T02:11:42;97310.00;;;8.00;100.00
28606;BME280;46498;49.968;7.754;2023-03-20T02:16:45;97316.00;;;8.03;100.00
28606;BME280;46498;49.968;7.754;2023-03-20T02:22:38;97315.00;;;8.06;100.00
28606;BME280;46498;49.968;7.754;2023-03-20T02:42:42;97303.00;;;8.09;100.00
28606;BME280;46498;49.968;7.754;2023-03-20T02:55:46;97296.00;;;7.97;100.00
28606;BME280;46498;49.968;7.754;2023-03-20T03:01:05;97278.00;;;8.01;100.00
28606;BME280;46498;49.968;7.754;2023-03-20T03:06:21;97273.00;;;8.00;100.00
28606;BME280;46498;49.968;7.754;2023-03-20T03:11:24;97279.00;;;8.01;100.00
28606;BME280;46498;49.968;7.754;2023-03-20T03:16:29;97285.00;;;7.95;100.00
28606;BME280;46498;49.968;7.754;2023-03-20T03:21:32;97292.00;;;7.98;100.00
28606;BME280;46498;49.968;7.754;2023-03-20T03:26:37;97316.00;;;8.01;100.00
28606;BME280;46498;49.968;7.754;2023-03-20T03:31:39;97308.00;;;8.05;100.00
28606;BME280;46498;49.968;7.754;2023-03-20T03:37:35;97314.00;;;8.22;100.00
28606;BME280;46498;49.968;7.754;2023-03-20T03:42:56;97323.00;;;8.13;100.00
28606;BME280;46498;49.968;7.754;2023-03-20T03:48:10;97317.00;;;8.11;100.00
28606;BME280;46498;49.968;7.754;2023-03-20T03:53:19;97322.00;;;8.00;100.00
28606;BME280;46498;49.968;7.754;2023-03-20T03:58:30;97319.00;;;8.05;100.00
28606;BME280;46498;49.968;7.754;2023-03-20T04:03:37;97319.00;;;7.98;100.00
28606;BME280;46498;49.968;7.754;2023-03-20T04:08:39;97305.00;;;7.89;100.00
28606;BME280;46498;49.968;7.754;2023-03-20T04:13:41;97310.00;;;7.95;100.00
28606;BME280;46498;49.968;7.754;2023-03-20T04:18:43;97318.00;;;7.83;100.00
28606;BME280;46498;49.968;7.754;2023-03-20T04:23:47;97331.00;;;7.81;100.00
28606;BME280;46498;49.968;7.754;2023-03-20T04:28:49;97328.00;;;7.85;100.00
28606;BME280;46498;49.968;7.754;2023-03-20T04:34:05;97328.00;;;7.76;100.00
28606;BME280;46498;49.968;7.754;2023-03-20T04:39:15;97342.00;;;7.78;100.00
28606;BME280;46498;49.968;7.754;2023-03-20T04:44:16;97344.00;;;7.76;100.00
28606;BME280;46498;49.968;7.754;2023-03-20T04:49:19;97359.00;;;7.64;100.00
28606;BME280;46498;49.968;7.754;2023-03-20T04:54:21;97351.00;;;7.64;100.00
28606;BME280;46498;49.968;7.754;2023-03-20T04:59:22;97335.00;;;7.59;100.00
28606;BME280;46498;49.968;7.754;2023-03-20T05:04:24;97333.00;;;7.34;100.00
28606;BME280;46498;49.968;7.754;2023-03-20T05:09:25;97327.00;;;7.28;100.00
28606;BME280;46498;49.968;7.754;2023-03-20T05:14:27;97326.00;;;7.28;100.00
28606;BME280;46498;49.968;7.754;2023-03-20T05:21:19;97322.00;;;7.19;100.00
28606;BME280;46498;49.968;7.754;2023-03-20T05:26:30;97344.00;;;7.15;100.00
28606;BME280;46498;49.968;7.754;2023-03-20T05:38:18;97348.00;;;7.13;100.00
28606;BME280;46498;49.968;7.754;2023-03-20T05:45:59;97355.00;;;6.93;100.00
28606;BME280;46498;49.968;7.754;2023-03-20T05:51:33;97358.00;;;6.91;100.00
28606;BME280;46498;49.968;7.754;2023-03-20T05:56:43;97359.00;;;6.95;100.00
28606;BME280;46498;49.968;7.754;2023-03-20T06:08:33;97359.00;;;6.95;100.00
28606;BME280;46498;49.968;7.754;2023-03-20T06:13:37;97358.00;;;7.14;100.00
28606;BME280;46498;49.968;7.754;2023-03-20T06:18:38;97355.00;;;7.21;100.00
28606;BME280;46498;49.968;7.754;2023-03-20T06:23:40;97373.00;;;7.33;100.00
28606;BME280;46498;49.968;7.754;2023-03-20T06:28:41;97363.00;;;7.29;100.00
28606;BME280;46498;49.968;7.754;2023-03-20T06:33:43;97364.00;;;7.24;100.00
28606;BME280;46498;49.968;7.754;2023-03-20T06:38:46;97370.00;;;7.13;100.00
28606;BME280;46498;49.968;7.754;2023-03-20T06:43:49;97354.00;;;7.02;100.00
28606;BME280;46498;49.968;7.754;2023-03-20T06:48:52;97352.00;;;7.08;100.00
28606;BME280;46498;49.968;7.754;2023-03-20T06:53:53;97367.00;;;7.26;100.00
28606;BME280;46498;49.968;7.754;2023-03-20T06:58:59;97362.00;;;7.15;100.00
28606;BME280;46498;49.968;7.754;2023-03-20T07:04:00;97379.00;;;7.24;100.00
28606;BME280;46498;49.968;7.754;2023-03-20T07:09:08;97386.00;;;7.42;100.00
28606;BME280;46498;49.968;7.754;2023-03-20T07:14:10;97387.00;;;7.55;100.00
28606;BME280;46498;49.968;7.754;2023-03-20T07:19:19;97381.00;;;7.58;100.00
28606;BME280;46498;49.968;7.754;2023-03-20T07:24:23;97395.00;;;7.66;100.00
28606;BME280;46498;49.968;7.754;2023-03-20T07:29:24;97393.00;;;7.69;100.00
28606;BME280;46498;49.968;7.754;2023-03-20T07:34:26;97388.00;;;7.93;100.00
28606;BME280;46498;49.968;7.754;2023-03-20T07:39:27;97394.00;;;7.92;100.00
28606;BME280;46498;49.968;7.754;2023-03-20T07:44:55;97397.00;;;7.92;100.00
28606;BME280;46498;49.968;7.754;2023-03-20T07:49:57;97392.00;;;8.03;100.00
28606;BME280;46498;49.968;7.754;2023-03-20T07:54:57;97397.00;;;8.03;100.00
28606;BME280;46498;49.968;7.754;2023-03-20T08:00:01;97397.00;;;7.79;100.00
28606;BME280;46498;49.968;7.754;2023-03-20T08:05:11;97395.00;;;8.00;100.00
28606;BME280;46498;49.968;7.754;2023-03-20T08:10:13;97406.00;;;8.02;100.00
28606;BME280;46498;49.968;7.754;2023-03-20T08:15:14;97414.00;;;7.94;100.00
28606;BME280;46498;49.968;7.754;2023-03-20T08:20:15;97417.00;;;7.96;100.00
28606;BME280;46498;49.968;7.754;2023-03-20T08:25:17;97424.00;;;8.06;100.00
28606;BME280;46498;49.968;7.754;2023-03-20T08:30:18;97439.00;;;8.22;100.00
28606;BME280;46498;49.968;7.754;2023-03-20T08:35:19;97433.00;;;8.58;100.00
28606;BME280;46498;49.968;7.754;2023-03-20T08:40:45;97440.00;;;8.81;100.00
28606;BME280;46498;49.968;7.754;2023-03-20T08:45:46;97443.00;;;8.97;100.00
28606;BME280;46498;49.968;7.754;2023-03-20T08:50:47;97441.00;;;8.97;100.00
28606;BME280;46498;49.968;7.754;2023-03-20T08:55:50;97441.00;;;9.11;100.00
28606;BME280;46498;49.968;7.754;2023-03-20T09:00:51;97440.00;;;9.29;100.00
28606;BME280;46498;49.968;7.754;2023-03-20T09:05:52;97437.00;;;9.48;100.00
28606;BME280;46498;49.968;7.754;2023-03-20T09:10:53;97442.00;;;9.43;100.00
28606;BME280;46498;49.968;7.754;2023-03-20T09:15:55;97436.00;;;9.41;100.00
28606;BME280;46498;49.968;7.754;2023-03-20T09:20:56;97433.00;;;9.60;100.00
28606;BME280;46498;49.968;7.754;2023-03-20T09:25:57;97429.00;;;9.80;100.00
28606;BME280;46498;49.968;7.754;2023-03-20T09:30:59;97440.00;;;10.15;100.00
28606;BME280;46498;49.968;7.754;2023-03-20T09:36:01;97446.00;;;10.01;97.83
28606;BME280;46498;49.968;7.754;2023-03-20T09:41:04;97444.00;;;10.14;98.19
28606;BME280;46498;49.968;7.754;2023-03-20T09:46:36;97442.00;;;10.20;97.06
28606;BME280;46498;49.968;7.754;2023-03-20T09:51:47;97448.00;;;11.00;97.57
28606;BME280;46498;49.968;7.754;2023-03-20T09:56:52;97448.00;;;11.60;92.52
28606;BME280;46498;49.968;7.754;2023-03-20T10:01:57;97453.00;;;11.89;89.76
28606;BME280;46498;49.968;7.754;2023-03-20T10:07:03;97465.00;;;11.25;83.85
28606;BME280;46498;49.968;7.754;2023-03-20T10:20:25;97469.00;;;10.44;91.64
28606;BME280;46498;49.968;7.754;2023-03-20T10:25:34;97471.00;;;10.33;90.46
28606;BME280;46498;49.968;7.754;2023-03-20T10:30:48;97472.00;;;10.16;90.79
28606;BME280;46498;49.968;7.754;2023-03-20T10:42:44;97472.00;;;9.95;90.16
28606;BME280;46498;49.968;7.754;2023-03-20T10:47:50;97471.00;;;10.22;84.49
28606;BME280;46498;49.968;7.754;2023-03-20T10:52:53;97472.00;;;10.26;81.66
28606;BME280;46498;49.968;7.754;2023-03-20T10:58:04;97476.00;;;10.42;78.50
28606;BME280;46498;49.968;7.754;2023-03-20T11:03:20;97461.00;;;10.42;78.90
28606;BME280;46498;49.968;7.754;2023-03-20T11:08:24;97458.00;;;10.84;78.73
28606;BME280;46498;49.968;7.754;2023-03-20T11:13:35;97453.00;;;10.89;77.41
28606;BME280;46498;49.968;7.754;2023-03-20T11:18:39;97471.00;;;10.84;68.74
28606;BME280;46498;49.968;7.754;2023-03-20T11:23:41;97460.00;;;10.75;66.57
28606;BME280;46498;49.968;7.754;2023-03-20T11:28:48;97458.00;;;11.01;71.19
28606;BME280;46498;49.968;7.754;2023-03-20T11:33:59;97460.00;;;11.18;68.46
28606;BME280;46498;49.968;7.754;2023-03-20T11:39:19;97447.00;;;10.92;66.89
28606;BME280;46498;49.968;7.754;2023-03-20T11:44:23;97451.00;;;11.20;66.99
28606;BME280;46498;49.968;7.754;2023-03-20T11:49:26;97446.00;;;10.92;66.88
28606;BME280;46498;49.968;7.754;2023-03-20T11:54:30;97437.00;;;11.25;67.11
28606;BME280;46498;49.968;7.754;2023-03-20T11:59:32;97432.00;;;11.32;70.22
28606;BME280;46498;49.968;7.754;2023-03-20T12:04:36;97422.00;;;11.15;68.66
28606;BME280;46498;49.968;7.754;2023-03-20T12:09:50;97429.00;;;10.70;66.73
28606;BME280;46498;49.968;7.754;2023-03-20T12:15:21;97429.00;;;10.41;67.75
28606;BME280;46498;49.968;7.754;2023-03-20T12:20:37;97427.00;;;10.21;70.62
28606;BME280;46498;49.968;7.754;2023-03-20T12:25:48;97420.00;;;10.10;72.59
28606;BME280;46498;49.968;7.754;2023-03-20T12:34:24;97419.00;;;10.21;68.60
28606;BME280;46498;49.968;7.754;2023-03-20T12:39:32;97409.00;;;10.44;66.35
28606;BME280;46498;49.968;7.754;2023-03-20T12:50:36;97401.00;;;10.75;54.69
28606;BME280;46498;49.968;7.754;2023-03-20T12:59:14;97397.00;;;11.13;52.55
28606;BME280;46498;49.968;7.754;2023-03-20T13:05:16;97399.00;;;10.65;52.59
28606;BME280;46498;49.968;7.754;2023-03-20T13:10:36;97398.00;;;10.51;53.50
28606;BME280;46498;49.968;7.754;2023-03-20T13:16:47;97396.00;;;10.16;53.70
28606;BME280;46498;49.968;7.754;2023-03-20T13:22:01;97396.00;;;10.11;52.41
28606;BME280;46498;49.968;7.754;2023-03-20T13:28:03;97388.00;;;10.01;50.81
28606;BME280;46498;49.968;7.754;2023-03-20T13:33:33;97382.00;;;10.05;54.40
28606;BME280;46498;49.968;7.754;2023-03-20T13:38:41;97372.00;;;9.76;54.46
28606;BME280;46498;49.968;7.754;2023-03-20T13:43:58;97368.00;;;9.67;57.49
28606;BME280;46498;49.968;7.754;2023-03-20T13:49:06;97362.00;;;9.55;58.82
28606;BME280;46498;49.968;7.754;2023-03-20T14:01:17;97355.00;;;9.29;62.01
28606;BME280;46498;49.968;7.754;2023-03-20T14:07:30;97362.00;;;9.18;58.07
28606;BME280;46498;49.968;7.754;2023-03-20T14:12:32;97357.00;;;9.11;56.21
28606;BME280;46498;49.968;7.754;2023-03-20T14:17:32;97352.00;;;9.20;57.48
28606;BME280;46498;49.968;7.754;2023-03-20T14:22:35;97347.00;;;9.38;58.89
28606;BME280;46498;49.968;7.754;2023-03-20T14:31:11;97339.00;;;9.33;57.75
28606;BME280;46498;49.968;7.754;2023-03-20T14:36:27;97342.00;;;9.10;61.16
28606;BME280;46498;49.968;7.754;2023-03-20T14:48:47;97341.00;;;8.76;61.95
28606;BME280;46498;49.968;7.754;2023-03-20T14:54:21;97348.00;;;8.88;63.86
28606;BME280;46498;49.968;7.754;2023-03-20T14:59:23;97351.00;;;9.12;62.88
28606;BME280;46498;49.968;7.754;2023-03-20T15:04:33;97345.00;;;9.15;62.42
28606;BME280;46498;49.968;7.754;2023-03-20T15:09:37;97337.00;;;9.04;60.72
28606;BME280;46498;49.968;7.754;2023-03-20T15:14:52;97346.00;;;8.99;61.80
28606;BME280;46498;49.968;7.754;2023-03-20T15:20:05;97347.00;;;8.91;62.79
28606;BME280;46498;49.968;7.754;2023-03-20T15:25:16;97346.00;;;8.96;62.88
28606;BME280;46498;49.968;7.754;2023-03-20T15:30:19;97341.00;;;8.85;64.88
28606;BME280;46498;49.968;7.754;2023-03-20T15:35:24;97346.00;;;8.74;63.85
28606;BME280;46498;49.968;7.754;2023-03-20T15:40:30;97342.00;;;8.69;64.96
28606;BME280;46498;49.968;7.754;2023-03-20T15:45:51;97352.00;;;8.76;65.46
28606;BME280;46498;49.968;7.754;2023-03-20T15:51:19;97350.00;;;8.77;65.19
28606;BME280;46498;49.968;7.754;2023-03-20T15:56:24;97345.00;;;8.75;66.51
28606;BME280;46498;49.968;7.754;2023-03-20T16:01:31;97334.00;;;8.60;67.38
28606;BME280;46498;49.968;7.754;2023-03-20T16:06:43;97339.00;;;8.39;68.91
28606;BME280;46498;49.968;7.754;2023-03-20T16:11:48;97328.00;;;8.21;70.53
28606;BME280;46498;49.968;7.754;2023-03-20T16:16:52;97339.00;;;8.24;71.69
28606;BME280;46498;49.968;7.754;2023-03-20T16:22:01;97331.00;;;8.19;71.87
28606;BME280;46498;49.968;7.754;2023-03-20T16:27:06;97340.00;;;8.20;71.82
28606;BME280;46498;49.968;7.754;2023-03-20T16:34:00;97336.00;;;8.02;72.85
28606;BME280;46498;49.968;7.754;2023-03-20T16:39:07;97340.00;;;7.99;74.33
28606;BME280;46498;49.968;7.754;2023-03-20T16:44:29;97331.00;;;8.02;73.40
28606;BME280;46498;49.968;7.754;2023-03-20T16:50:04;97334.00;;;8.09;74.20
28606;BME280;46498;49.968;7.754;2023-03-20T16:55:29;97337.00;;;8.13;75.07
28606;BME280;46498;49.968;7.754;2023-03-20T17:00:43;97347.00;;;8.09;73.90
28606;BME280;46498;49.968;7.754;2023-03-20T17:06:03;97355.00;;;8.11;73.90
28606;BME280;46498;49.968;7.754;2023-03-20T17:11:11;97356.00;;;8.10;74.17
28606;BME280;46498;49.968;7.754;2023-03-20T17:16:20;97342.00;;;7.94;75.07
28606;BME280;46498;49.968;7.754;2023-03-20T17:21:21;97342.00;;;7.95;75.85
28606;BME280;46498;49.968;7.754;2023-03-20T17:26:22;97332.00;;;7.97;75.28
28606;BME280;46498;49.968;7.754;2023-03-20T17:31:23;97341.00;;;7.94;77.25
28606;BME280;46498;49.968;7.754;2023-03-20T17:36:30;97335.00;;;7.93;77.24
28606;BME280;46498;49.968;7.754;2023-03-20T17:41:31;97339.00;;;7.95;77.56
28606;BME280;46498;49.968;7.754;2023-03-20T17:46:32;97334.00;;;7.90;78.37
28606;BME280;46498;49.968;7.754;2023-03-20T17:51:50;97329.00;;;7.87;78.82
28606;BME280;46498;49.968;7.754;2023-03-20T17:56:51;97336.00;;;7.97;77.99
28606;BME280;46498;49.968;7.754;2023-03-20T18:01:51;97334.00;;;7.94;79.64
28606;BME280;46498;49.968;7.754;2023-03-20T18:06:52;97338.00;;;7.93;79.59
28606;BME280;46498;49.968;7.754;2023-03-20T18:11:54;97334.00;;;7.90;79.95
28606;BME280;46498;49.968;7.754;2023-03-20T18:16:54;97334.00;;;7.83;81.29
28606;BME280;46498;49.968;7.754;2023-03-20T18:21:56;97329.00;;;7.85;82.21
28606;BME280;46498;49.968;7.754;2023-03-20T18:26:57;97335.00;;;7.91;81.21
28606;BME280;46498;49.968;7.754;2023-03-20T18:31:59;97332.00;;;7.84;82.03
28606;BME280;46498;49.968;7.754;2023-03-20T18:37:00;97334.00;;;7.83;82.12
28606;BME280;46498;49.968;7.754;2023-03-20T18:42:02;97332.00;;;7.92;81.54
28606;BME280;46498;49.968;7.754;2023-03-20T18:47:03;97325.00;;;7.81;82.75
28606;BME280;46498;49.968;7.754;2023-03-20T18:52:04;97324.00;;;7.89;83.10
28606;BME280;46498;49.968;7.754;2023-03-20T18:57:10;97330.00;;;7.91;83.63
28606;BME280;46498;49.968;7.754;2023-03-20T19:02:12;97330.00;;;7.91;83.18
28606;BME280;46498;49.968;7.754;2023-03-20T19:07:13;97337.00;;;7.90;83.68
28606;BME280;46498;49.968;7.754;2023-03-20T19:12:14;97331.00;;;7.87;84.50
28606;BME280;46498;49.968;7.754;2023-03-20T19:17:15;97339.00;;;7.86;85.27
28606;BME280;46498;49.968;7.754;2023-03-20T19:22:16;97344.00;;;7.90;84.42
28606;BME280;46498;49.968;7.754;2023-03-20T19:27:30;97336.00;;;7.90;85.79
28606;BME280;46498;49.968;7.754;2023-03-20T19:32:30;97335.00;;;7.93;84.39
28606;BME280;46498;49.968;7.754;2023-03-20T19:37:31;97342.00;;;7.81;84.30
28606;BME280;46498;49.968;7.754;2023-03-20T19:42:32;97338.00;;;7.72;85.85
28606;BME280;46498;49.968;7.754;2023-03-20T19:48:11;97329.00;;;7.70;86.72
28606;BME280;46498;49.968;7.754;2023-03-20T19:53:15;97331.00;;;7.65;89.22
28606;BME280;46498;49.968;7.754;2023-03-20T19:58:16;97329.00;;;7.51;92.50
28606;BME280;46498;49.968;7.754;2023-03-20T20:03:24;97326.00;;;7.36;94.41
28606;BME280;46498;49.968;7.754;2023-03-20T20:08:26;97321.00;;;7.41;95.11
28606;BME280;46498;49.968;7.754;2023-03-20T20:13:47;97323.00;;;7.38;96.00
28606;BME280;46498;49.968;7.754;2023-03-20T20:19:18;97325.00;;;7.46;95.93
28606;BME280;46498;49.968;7.754;2023-03-20T20:24:19;97315.00;;;7.52;95.38
28606;BME280;46498;49.968;7.754;2023-03-20T20:29:20;97322.00;;;7.63;95.94
28606;BME280;46498;49.968;7.754;2023-03-20T20:34:24;97313.00;;;7.68;96.32
28606;BME280;46498;49.968;7.754;2023-03-20T20:40:35;97317.00;;;7.76;96.23
28606;BME280;46498;49.968;7.754;2023-03-20T20:45:36;97326.00;;;7.80;93.33
28606;BME280;46498;49.968;7.754;2023-03-20T20:50:39;97328.00;;;7.83;93.90
28606;BME280;46498;49.968;7.754;2023-03-20T20:55:41;97325.00;;;7.91;90.25
28606;BME280;46498;49.968;7.754;2023-03-20T21:00:42;97314.00;;;7.83;91.65
28606;BME280;46498;49.968;7.754;2023-03-20T21:05:54;97324.00;;;7.87;90.43
28606;BME280;46498;49.968;7.754;2023-03-20T21:10:55;97324.00;;;7.86;90.10
28606;BME280;46498;49.968;7.754;2023-03-20T21:15:57;97332.00;;;7.82;91.03
28606;BME280;46498;49.968;7.754;2023-03-20T21:21:06;97327.00;;;7.74;90.77
28606;BME280;46498;49.968;7.754;2023-03-20T21:26:08;97332.00;;;8.00;92.10
28606;BME280;46498;49.968;7.754;2023-03-20T21:31:09;97320.00;;;7.90;91.05
28606;BME280;46498;49.968;7.754;2023-03-20T21:36:26;97319.00;;;7.81;89.51
28606;BME280;46498;49.968;7.754;2023-03-20T21:41:28;97319.00;;;7.58;91.73
28606;BME280;46498;49.968;7.754;2023-03-20T21:46:29;97322.00;;;7.62;91.92
28606;BME280;46498;49.968;7.754;2023-03-20T21:52:00;97327.00;;;7.66;92.56
28606;BME280;46498;49.968;7.754;2023-03-20T21:57:31;97316.00;;;7.58;92.22
28606;BME280;46498;49.968;7.754;2023-03-20T22:04:35;97313.00;;;7.61;91.97
28606;BME280;46498;49.968;7.754;2023-03-20T22:10:37;97320.00;;;7.65;92.37
28606;BME280;46498;49.968;7.754;2023-03-20T22:16:50;97321.00;;;7.63;92.42
28606;BME280;46498;49.968;7.754;2023-03-20T22:22:48;97318.00;;;7.50;92.65
28606;BME280;46498;49.968;7.754;2023-03-20T22:29:03;97319.00;;;7.53;92.80
28606;BME280;46498;49.968;7.754;2023-03-20T22:34:59;97317.00;;;7.55;92.62
28606;BME280;46498;49.968;7.754;2023-03-20T22:40:30;97323.00;;;7.59;92.26
28606;BME280;46498;49.968;7.754;2023-03-20T22:46:00;97316.00;;;7.61;92.62
28606;BME280;46498;49.968;7.754;2023-03-20T22:51:29;97309.00;;;7.48;98.14
28606;BME280;46498;49.968;7.754;2023-03-20T22:56:41;97305.00;;;7.51;94.39
28606;BME280;46498;49.968;7.754;2023-03-20T23:01:42;97304.00;;;7.62;95.00
28606;BME280;46498;49.968;7.754;2023-03-20T23:06:43;97296.00;;;7.35;99.62
28606;BME280;46498;49.968;7.754;2023-03-20T23:11:44;97299.00;;;7.33;100.00
28606;BME280;46498;49.968;7.754;2023-03-20T23:16:45;97297.00;;;7.25;100.00
28606;BME280;46498;49.968;7.754;2023-03-20T23:21:46;97296.00;;;7.26;100.00
28606;BME280;46498;49.968;7.754;2023-03-20T23:26:47;97294.00;;;7.18;100.00
28606;BME280;46498;49.968;7.754;2023-03-20T23:31:48;97293.00;;;7.16;100.00
28606;BME280;46498;49.968;7.754;2023-03-20T23:36:49;97290.00;;;7.27;100.00
28606;BME280;46498;49.968;7.754;2023-03-20T23:41:50;97283.00;;;7.47;98.96
28606;BME280;46498;49.968;7.754;2023-03-20T23:47:15;97272.00;;;7.37;99.44
28606;BME280;46498;49.968;7.754;2023-03-20T23:52:21;97272.00;;;7.42;98.65
28606;BME280;46498;49.968;7.754;2023-03-20T23:57:22;97268.00;;;7.50;97.38
